createdAt,value
2019-03-15T00:02:05.555Z,3.72
2019-03-15T00:04:34.644Z,4.72
2019-03-15T00:07:03.497Z,4.12
2019-03-15T00:09:32.355Z,3.83
2019-03-15T00:12:01.211Z,4.35
2019-03-15T00:14:30.079Z,4.33
2019-03-15T00:16:58.927Z,3.75
2019-03-15T00:19:27.779Z,4.67
2019-03-15T00:21:56.648Z,4.20
2019-03-15T00:24:25.733Z,3.60
2019-03-15T00:26:54.591Z,3.83
2019-03-15T00:29:23.689Z,5.00
2019-03-15T00:31:52.543Z,4.65
2019-03-15T00:34:21.403Z,4.22
2019-03-15T00:36:50.268Z,4.55
2019-03-15T00:39:20.100Z,4.55
2019-03-15T00:41:48.948Z,5.05
2019-03-15T00:44:17.816Z,5.08
2019-03-15T00:46:46.673Z,6.03
2019-03-15T00:49:15.531Z,3.90
2019-03-15T00:51:44.386Z,4.62
2019-03-15T00:54:13.247Z,4.60
2019-03-15T00:56:42.099Z,4.65
2019-03-15T00:59:10.959Z,4.25
2019-03-15T01:01:39.814Z,4.28
2019-03-15T01:04:09.576Z,4.33
2019-03-15T01:06:38.613Z,4.05
2019-03-15T01:09:07.471Z,4.62
2019-03-15T01:11:36.327Z,3.98
2019-03-15T01:14:05.264Z,3.60
2019-03-15T01:16:34.753Z,3.67
2019-03-15T01:19:03.679Z,3.90
2019-03-15T01:21:32.543Z,3.92
2019-03-15T01:24:01.400Z,3.80
2019-03-15T01:26:30.259Z,3.83
2019-03-15T01:28:59.119Z,3.40
2019-03-15T01:31:27.987Z,3.65
2019-03-15T01:33:56.840Z,3.83
2019-03-15T01:36:25.714Z,3.77
2019-03-15T01:38:54.559Z,3.47
2019-03-15T01:41:23.651Z,3.20
2019-03-15T01:43:52.506Z,3.77
2019-03-15T01:46:21.363Z,3.60
2019-03-15T01:48:50.300Z,3.65
2019-03-15T01:51:19.179Z,3.50
2019-03-15T01:53:48.478Z,3.67
2019-03-15T01:56:17.464Z,3.50
2019-03-15T01:58:46.326Z,3.70
2019-03-15T02:01:15.179Z,3.42
2019-03-15T02:03:44.113Z,3.37
2019-03-15T02:06:12.963Z,3.35
2019-03-15T02:08:41.816Z,3.12
2019-03-15T02:11:11.739Z,3.33
2019-03-15T02:13:40.595Z,3.52
2019-03-15T02:16:09.459Z,3.62
2019-03-15T02:18:38.311Z,4.17
2019-03-15T02:21:07.180Z,3.10
2019-03-15T02:23:36.271Z,3.15
2019-03-15T02:26:05.536Z,3.62
2019-03-15T02:28:34.395Z,4.22
2019-03-15T02:31:03.248Z,3.35
2019-03-15T02:33:33.400Z,3.87
2019-03-15T02:36:02.548Z,3.72
2019-03-15T02:38:31.399Z,4.17
2019-03-15T02:41:00.276Z,3.85
2019-03-15T02:43:29.128Z,3.90
2019-03-15T02:45:59.110Z,3.80
2019-03-15T02:48:28.019Z,3.77
2019-03-15T02:50:56.928Z,4.30
2019-03-15T02:53:25.773Z,4.90
2019-03-15T02:55:54.695Z,3.95
2019-03-15T02:58:23.565Z,3.90
2019-03-15T03:00:52.412Z,4.33
2019-03-15T03:03:21.276Z,4.83
2019-03-15T03:05:50.132Z,4.78
2019-03-15T03:08:18.996Z,5.33
2019-03-15T03:10:48.021Z,4.53
2019-03-15T03:13:17.151Z,4.95
2019-03-15T03:15:46.007Z,4.50
2019-03-15T03:18:14.887Z,4.62
2019-03-15T03:20:43.749Z,4.40
2019-03-15T03:23:12.596Z,4.58
2019-03-15T03:25:41.459Z,4.70
2019-03-15T03:28:10.375Z,4.28
2019-03-15T03:30:39.345Z,4.55
2019-03-15T03:33:08.417Z,3.72
2019-03-15T03:35:37.373Z,4.70
2019-03-15T03:38:06.216Z,4.12
2019-03-15T03:40:35.136Z,4.42
2019-03-15T03:43:04.061Z,5.25
2019-03-15T03:45:32.912Z,5.22
2019-03-15T03:48:01.771Z,4.85
2019-03-15T03:50:30.650Z,4.97
2019-03-15T03:52:59.504Z,4.92
2019-03-15T03:55:28.357Z,4.50
2019-03-15T03:57:57.223Z,4.25
2019-03-15T04:00:26.067Z,5.47
2019-03-15T04:02:54.927Z,5.58
2019-03-15T04:05:23.782Z,5.70
2019-03-15T04:07:52.643Z,5.62
2019-03-15T04:10:21.587Z,5.58
2019-03-15T04:12:50.447Z,5.67
2019-03-15T04:15:19.302Z,5.00
2019-03-15T04:17:48.227Z,4.33
2019-03-15T04:20:17.190Z,5.00
2019-03-15T04:22:46.039Z,4.95
2019-03-15T04:25:14.951Z,4.83
2019-03-15T04:27:43.816Z,5.20
2019-03-15T04:30:13.231Z,4.83
2019-03-15T04:32:42.103Z,4.70
2019-03-15T04:35:10.967Z,4.80
2019-03-15T04:37:39.829Z,4.70
2019-03-15T04:40:09.985Z,5.25
2019-03-15T04:42:38.849Z,4.83
2019-03-15T04:45:08.229Z,4.62
2019-03-15T04:47:37.076Z,4.90
2019-03-15T04:50:06.509Z,4.72
2019-03-15T04:52:35.743Z,5.15
2019-03-15T04:55:05.163Z,5.30
2019-03-15T04:57:34.031Z,5.15
2019-03-15T05:00:03.059Z,5.90
2019-03-15T05:02:32.203Z,6.25
2019-03-15T05:05:01.155Z,5.58
2019-03-15T05:07:30.127Z,5.03
2019-03-15T05:09:59.222Z,5.12
2019-03-15T05:12:28.096Z,5.15
2019-03-15T05:14:56.947Z,5.37
2019-03-15T05:17:26.046Z,5.25
2019-03-15T05:19:54.952Z,5.08
2019-03-15T05:22:23.813Z,5.30
2019-03-15T05:24:52.671Z,5.17
2019-03-15T05:27:21.533Z,4.80
2019-03-15T05:29:50.383Z,5.65
2019-03-15T05:32:19.248Z,4.78
2019-03-15T05:34:48.111Z,5.03
2019-03-15T05:37:16.960Z,5.78
2019-03-15T05:39:46.079Z,5.12
2019-03-15T05:42:14.911Z,5.30
2019-03-15T05:44:44.006Z,5.05
2019-03-15T05:47:12.871Z,5.40
2019-03-15T05:49:45.119Z,4.95
2019-03-15T05:52:14.021Z,5.35
2019-03-15T05:54:42.916Z,5.37
2019-03-15T05:57:11.779Z,6.15
2019-03-15T05:59:40.632Z,5.70
2019-03-15T06:02:09.517Z,5.37
2019-03-15T06:04:38.601Z,5.25
2019-03-15T06:07:07.499Z,5.92
2019-03-15T06:09:36.561Z,5.35
2019-03-15T06:12:05.411Z,5.22
2019-03-15T06:14:34.267Z,6.17
2019-03-15T06:17:03.124Z,6.05
2019-03-15T06:19:31.992Z,6.08
2019-03-15T06:22:00.887Z,6.25
2019-03-15T06:24:30.391Z,5.75
2019-03-15T06:26:59.245Z,5.92
2019-03-15T06:29:28.191Z,5.95
2019-03-15T06:31:57.063Z,6.20
2019-03-15T06:34:26.696Z,5.65
2019-03-15T06:36:58.747Z,5.83
2019-03-15T06:39:27.676Z,6.30
2019-03-15T06:41:56.567Z,6.72
2019-03-15T06:44:25.400Z,6.72
2019-03-15T06:46:54.260Z,6.92
2019-03-15T06:49:23.345Z,7.15
2019-03-15T06:51:52.211Z,7.55
2019-03-15T06:54:21.081Z,6.80
2019-03-15T06:56:49.940Z,7.60
2019-03-15T06:59:18.799Z,7.83
2019-03-15T07:01:47.651Z,7.62
2019-03-15T07:04:17.488Z,6.87
2019-03-15T07:06:46.344Z,8.38
2019-03-15T07:09:15.203Z,8.28
2019-03-15T07:11:45.063Z,8.98
2019-03-15T07:14:13.944Z,10.05
2019-03-15T07:16:42.803Z,10.50
2019-03-15T07:19:25.063Z,12.03
2019-03-15T07:21:42.289Z,12.82
2019-03-15T07:24:25.096Z,12.78
2019-03-15T07:26:47.492Z,12.85
2019-03-15T07:29:18.887Z,13.85
2019-03-15T07:31:46.940Z,12.65
2019-03-15T07:34:18.760Z,13.45
2019-03-15T07:36:47.628Z,12.95
2019-03-15T07:39:16.494Z,13.85
2019-03-15T07:41:45.357Z,14.80
2019-03-15T07:44:14.215Z,15.53
2019-03-15T07:46:43.087Z,16.77
2019-03-15T07:49:12.411Z,17.85
2019-03-15T07:51:41.651Z,18.20
2019-03-15T07:54:11.001Z,17.67
2019-03-15T07:56:39.870Z,16.85
2019-03-15T07:59:09.571Z,16.90
2019-03-15T08:01:38.443Z,14.65
2019-03-15T08:04:16.864Z,14.15
2019-03-15T08:06:38.950Z,13.08
2019-03-15T08:09:07.869Z,13.50
2019-03-15T08:11:36.714Z,12.30
2019-03-15T08:14:07.210Z,10.88
2019-03-15T08:16:36.367Z,10.70
2019-03-15T08:19:05.398Z,10.50
2019-03-15T08:21:36.165Z,9.58
2019-03-15T08:24:05.032Z,9.38
2019-03-15T08:26:34.255Z,10.10
2019-03-15T08:29:09.413Z,10.45
2019-03-15T08:31:38.331Z,10.63
2019-03-15T08:34:07.191Z,10.63
2019-03-15T08:36:36.056Z,11.00
2019-03-15T08:39:05.488Z,11.10
2019-03-15T08:41:34.584Z,9.85
2019-03-15T08:44:03.439Z,10.15
2019-03-15T08:46:32.307Z,9.58
2019-03-15T08:49:04.154Z,10.23
2019-03-15T08:51:33.096Z,10.00
2019-03-15T08:54:03.577Z,10.32
2019-03-15T08:56:35.608Z,9.03
2019-03-15T08:59:04.731Z,10.25
2019-03-15T09:01:34.555Z,9.83
2019-03-15T09:04:03.649Z,9.70
2019-03-15T09:06:33.479Z,10.00
2019-03-15T09:09:05.563Z,9.13
2019-03-15T09:11:34.431Z,10.78
2019-03-15T09:14:06.242Z,10.58
2019-03-15T09:16:35.108Z,10.80
2019-03-15T09:19:04.437Z,11.38
2019-03-15T09:21:33.401Z,12.05
2019-03-15T09:24:03.876Z,12.37
2019-03-15T09:26:35.949Z,13.90
2019-03-15T09:29:04.883Z,15.10
2019-03-15T09:31:46.989Z,15.35
2019-03-15T09:34:06.994Z,14.80
2019-03-15T09:36:49.031Z,13.90
2019-03-15T09:39:07.084Z,14.30
2019-03-15T09:41:39.859Z,12.07
2019-03-15T09:44:07.787Z,14.38
2019-03-15T09:46:39.496Z,14.10
2019-03-15T09:49:08.379Z,13.32
2019-03-15T09:51:37.239Z,13.32
2019-03-15T09:54:07.309Z,14.50
2019-03-15T09:56:36.169Z,16.37
2019-03-15T09:59:05.280Z,15.38
2019-03-15T10:01:35.568Z,14.13
2019-03-15T10:04:05.867Z,11.88
2019-03-15T10:06:35.012Z,11.38
2019-03-15T10:09:05.648Z,11.83
2019-03-15T10:11:34.749Z,11.18
2019-03-15T10:14:03.851Z,10.18
2019-03-15T10:16:32.735Z,8.48
2019-03-15T10:19:01.607Z,8.05
2019-03-15T10:21:30.454Z,7.42
2019-03-15T10:23:59.972Z,7.08
2019-03-15T10:26:28.873Z,6.60
2019-03-15T10:28:57.756Z,7.30
2019-03-15T10:31:29.364Z,7.97
2019-03-15T10:34:01.080Z,8.08
2019-03-15T10:36:30.228Z,7.40
2019-03-15T10:38:59.286Z,6.87
2019-03-15T10:41:29.244Z,7.08
2019-03-15T10:43:58.103Z,6.37
2019-03-15T10:46:26.963Z,6.80
2019-03-15T10:48:55.887Z,6.50
2019-03-15T10:51:24.764Z,6.45
2019-03-15T10:53:55.111Z,5.40
2019-03-15T10:56:24.023Z,6.33
2019-03-15T10:58:52.869Z,6.03
2019-03-15T11:01:21.726Z,4.78
2019-03-15T11:03:50.824Z,4.85
2019-03-15T11:06:19.679Z,5.40
2019-03-15T11:08:48.560Z,5.10
2019-03-15T11:11:17.418Z,4.33
2019-03-15T11:13:46.279Z,4.00
2019-03-15T11:16:17.777Z,4.40
2019-03-15T11:18:46.808Z,3.60
2019-03-15T11:21:17.668Z,4.20
2019-03-15T11:23:48.190Z,3.77
2019-03-15T11:26:17.025Z,3.30
2019-03-15T11:28:46.379Z,3.30
2019-03-15T11:31:15.229Z,3.47
2019-03-15T11:33:47.268Z,2.90
2019-03-15T11:36:15.056Z,2.80
2019-03-15T11:38:43.922Z,2.75
2019-03-15T11:41:12.809Z,2.75
2019-03-15T11:43:41.665Z,2.65
2019-03-15T11:46:10.523Z,2.00
2019-03-15T11:48:39.611Z,2.20
2019-03-15T11:51:08.728Z,2.00
2019-03-15T11:53:37.808Z,2.08
2019-03-15T11:56:07.688Z,2.10
2019-03-15T11:58:38.152Z,1.70
2019-03-15T12:01:07.631Z,1.00
2019-03-15T12:03:38.067Z,1.10
2019-03-15T12:06:07.155Z,0.95
2019-03-15T12:08:36.003Z,0.80
2019-03-15T12:11:07.567Z,0.70
2019-03-15T12:13:39.904Z,0.60
2019-03-15T12:16:08.987Z,0.47
2019-03-15T12:18:38.088Z,0.50
2019-03-15T12:21:06.952Z,0.50
2019-03-15T12:23:35.796Z,0.50
2019-03-15T12:26:06.287Z,0.40
2019-03-15T12:28:35.144Z,0.40
2019-03-15T12:31:03.991Z,0.40
2019-03-15T12:33:32.854Z,0.30
2019-03-15T12:36:03.396Z,0.40
2019-03-15T12:38:35.700Z,0.40
2019-03-15T12:41:04.596Z,0.50
2019-03-15T12:43:33.443Z,0.50
2019-03-15T12:46:02.299Z,0.30
2019-03-15T12:48:31.860Z,0.40
2019-03-15T12:51:00.722Z,0.30
2019-03-15T12:53:30.071Z,0.47
2019-03-15T12:55:58.931Z,0.40
2019-03-15T12:58:28.008Z,0.40
2019-03-15T13:00:56.855Z,0.50
2019-03-15T13:03:25.731Z,0.40
2019-03-15T13:05:54.584Z,0.50
2019-03-15T13:08:23.431Z,0.40
2019-03-15T13:10:52.291Z,0.40
2019-03-15T13:13:22.147Z,0.42
2019-03-15T13:15:51.006Z,0.40
2019-03-15T13:18:19.860Z,0.50
2019-03-15T13:20:48.948Z,0.50
2019-03-15T13:23:18.028Z,0.50
2019-03-15T13:25:46.899Z,0.42
2019-03-15T13:28:16.387Z,0.40
2019-03-15T13:30:45.252Z,0.50
2019-03-15T13:33:20.601Z,0.40
2019-03-15T13:35:44.902Z,0.62
2019-03-15T13:38:13.761Z,0.50
2019-03-15T13:40:42.620Z,0.40
2019-03-15T13:43:11.478Z,0.50
2019-03-15T13:45:40.361Z,0.42
2019-03-15T13:48:09.441Z,0.40
2019-03-15T13:50:38.520Z,0.50
2019-03-15T13:53:07.687Z,0.40
2019-03-15T13:55:37.511Z,0.40
2019-03-15T13:58:06.379Z,0.60
2019-03-15T14:00:35.236Z,0.40
2019-03-15T14:03:04.108Z,0.50
2019-03-15T14:05:33.054Z,0.50
2019-03-15T14:08:11.091Z,0.50
2019-03-15T14:10:32.641Z,0.50
2019-03-15T14:13:01.488Z,0.47
2019-03-15T14:15:31.973Z,0.50
2019-03-15T14:18:01.254Z,0.37
2019-03-15T14:20:30.167Z,0.40
2019-03-15T14:22:59.615Z,0.42
2019-03-15T14:25:29.237Z,0.47
2019-03-15T14:28:00.743Z,0.40
2019-03-15T14:30:29.643Z,0.40
2019-03-15T14:32:58.499Z,0.45
2019-03-15T14:35:27.583Z,0.40
2019-03-15T14:37:56.441Z,0.50
2019-03-15T14:40:25.501Z,0.62
2019-03-15T14:42:54.543Z,0.60
2019-03-15T14:45:23.713Z,0.55
2019-03-15T14:47:52.630Z,0.50
2019-03-15T14:50:21.483Z,0.53
2019-03-15T14:52:50.411Z,0.50
2019-03-15T14:55:19.256Z,0.60
2019-03-15T14:57:52.476Z,0.40
2019-03-15T15:00:20.779Z,0.42
2019-03-15T15:02:52.456Z,0.50
2019-03-15T15:05:21.316Z,0.50
2019-03-15T15:07:50.172Z,0.70
2019-03-15T15:10:19.104Z,0.80
2019-03-15T15:12:47.943Z,0.72
2019-03-15T15:15:19.753Z,0.40
2019-03-15T15:17:50.192Z,0.40
2019-03-15T15:20:19.309Z,0.60
2019-03-15T15:22:50.127Z,0.70
2019-03-15T15:25:18.989Z,0.50
2019-03-15T15:27:47.839Z,0.40
2019-03-15T15:30:17.834Z,0.50
2019-03-15T15:32:46.699Z,0.40
2019-03-15T15:35:15.551Z,0.47
2019-03-15T15:37:44.532Z,0.53
2019-03-15T15:40:13.749Z,0.40
2019-03-15T15:42:42.668Z,0.50
2019-03-15T15:45:11.973Z,0.40
2019-03-15T15:47:40.851Z,0.40
2019-03-15T15:50:10.363Z,0.40
2019-03-15T15:52:39.237Z,0.30
2019-03-15T15:55:09.052Z,0.35
2019-03-15T15:57:37.910Z,0.37
2019-03-15T16:00:18.813Z,0.40
2019-03-15T16:02:47.983Z,0.50
2019-03-15T16:05:16.833Z,0.60
2019-03-15T16:07:47.589Z,0.80
2019-03-15T16:10:18.960Z,0.50
2019-03-15T16:12:47.807Z,0.40
2019-03-15T16:15:18.516Z,0.40
2019-03-15T16:17:47.355Z,0.40
2019-03-15T16:20:16.236Z,0.50
2019-03-15T16:22:45.076Z,0.40
2019-03-15T16:25:13.946Z,0.40
2019-03-15T16:27:42.815Z,0.30
2019-03-15T16:30:13.496Z,0.55
2019-03-15T16:32:45.596Z,0.33
2019-03-15T16:35:14.471Z,0.40
2019-03-15T16:37:44.439Z,0.40
2019-03-15T16:40:14.361Z,0.40
2019-03-15T16:42:44.391Z,0.40
2019-03-15T16:45:22.196Z,0.42
2019-03-15T16:47:51.119Z,0.40
2019-03-15T16:50:20.211Z,0.40
2019-03-15T16:52:50.316Z,0.40
2019-03-15T16:55:25.242Z,0.42
2019-03-15T16:57:54.172Z,0.40
2019-03-15T17:00:23.029Z,0.50
2019-03-15T17:02:51.881Z,0.40
2019-03-15T17:05:23.420Z,0.40
2019-03-15T17:07:54.185Z,0.40
2019-03-15T17:10:28.003Z,0.40
2019-03-15T17:12:57.308Z,0.45
2019-03-15T17:15:26.736Z,0.40
2019-03-15T17:17:55.848Z,0.70
2019-03-15T17:20:24.712Z,0.40
2019-03-15T17:22:53.575Z,0.50
2019-03-15T17:25:23.131Z,0.50
2019-03-15T17:27:52.011Z,0.57
2019-03-15T17:30:20.859Z,0.50
2019-03-15T17:32:49.715Z,0.60
2019-03-15T17:35:19.054Z,1.12
2019-03-15T17:37:47.979Z,0.50
2019-03-15T17:40:17.877Z,0.40
2019-03-15T17:42:46.749Z,0.60
2019-03-15T17:45:17.278Z,0.60
2019-03-15T17:47:46.987Z,0.60
2019-03-15T17:50:19.167Z,0.50
2019-03-15T17:52:48.039Z,0.53
2019-03-15T17:55:17.058Z,0.70
2019-03-15T17:57:46.324Z,0.60
2019-03-15T18:00:21.393Z,0.50
2019-03-15T18:02:50.235Z,0.75
2019-03-15T18:05:19.091Z,0.50
2019-03-15T18:07:47.948Z,0.60
2019-03-15T18:10:16.800Z,0.65
2019-03-15T18:12:45.903Z,0.62
2019-03-15T18:15:14.742Z,0.47
2019-03-15T18:17:43.824Z,0.57
2019-03-15T18:20:12.767Z,0.60
2019-03-15T18:22:42.683Z,0.50
2019-03-15T18:25:11.881Z,0.45
2019-03-15T18:27:41.082Z,0.65
2019-03-15T18:30:11.210Z,0.80
2019-03-15T18:32:40.055Z,0.70
2019-03-15T18:35:09.389Z,1.00
2019-03-15T18:37:38.497Z,0.60
2019-03-15T18:40:09.115Z,0.60
2019-03-15T18:42:38.015Z,0.70
2019-03-15T18:45:10.828Z,0.50
2019-03-15T18:47:39.744Z,0.30
2019-03-15T18:50:13.039Z,0.50
2019-03-15T18:52:41.896Z,0.47
2019-03-15T18:55:10.756Z,0.40
2019-03-15T18:57:39.619Z,0.70
2019-03-15T19:00:10.004Z,0.50
2019-03-15T19:02:38.879Z,0.47
2019-03-15T19:05:08.701Z,0.50
2019-03-15T19:07:38.783Z,0.70
2019-03-15T19:10:08.743Z,0.60
2019-03-15T19:12:38.728Z,0.50
2019-03-15T19:15:09.122Z,0.70
2019-03-15T19:17:39.888Z,0.70
2019-03-15T19:20:20.596Z,0.50
2019-03-15T19:22:49.704Z,0.60
2019-03-15T19:25:18.563Z,0.70
2019-03-15T19:27:47.435Z,0.70
2019-03-15T19:30:17.050Z,0.50
2019-03-15T19:32:45.950Z,0.60
2019-03-15T19:35:14.818Z,0.50
2019-03-15T19:37:43.664Z,0.50
2019-03-15T19:40:15.890Z,0.53
2019-03-15T19:42:45.800Z,0.60
2019-03-15T19:45:15.181Z,0.60
2019-03-15T19:47:44.039Z,0.55
2019-03-15T19:50:14.859Z,0.50
2019-03-15T19:52:43.837Z,0.60
2019-03-15T19:55:13.507Z,0.60
2019-03-15T19:57:42.385Z,0.42
2019-03-15T20:00:12.764Z,0.50
2019-03-15T20:02:41.675Z,0.70
2019-03-15T20:05:10.697Z,0.50
2019-03-15T20:07:40.625Z,0.50
2019-03-15T20:10:10.641Z,0.62
2019-03-15T20:12:39.571Z,0.50
2019-03-15T20:15:09.421Z,0.70
2019-03-15T20:17:38.507Z,0.60
2019-03-15T20:20:08.907Z,0.50
2019-03-15T20:22:37.766Z,0.50
2019-03-15T20:25:13.260Z,0.47
2019-03-15T20:27:42.113Z,0.60
2019-03-15T20:30:21.294Z,0.60
2019-03-15T20:32:43.983Z,0.40
2019-03-15T20:35:13.007Z,0.50
2019-03-15T20:37:41.931Z,0.50
2019-03-15T20:40:11.463Z,0.50
2019-03-15T20:42:41.732Z,0.50
2019-03-15T20:45:11.579Z,0.50
2019-03-15T20:47:40.528Z,0.62
2019-03-15T20:50:10.431Z,0.50
2019-03-15T20:52:39.304Z,0.50
2019-03-15T20:55:08.530Z,0.60
2019-03-15T20:57:37.462Z,0.50
2019-03-15T21:00:07.849Z,0.40
2019-03-15T21:02:38.323Z,0.40
2019-03-15T21:05:08.278Z,0.50
2019-03-15T21:07:39.488Z,0.50
2019-03-15T21:10:12.080Z,0.55
2019-03-15T21:12:40.939Z,0.60
2019-03-15T21:15:10.773Z,0.47
2019-03-15T21:17:39.643Z,0.50
2019-03-15T21:20:09.687Z,0.50
2019-03-15T21:22:38.535Z,0.55
2019-03-15T21:25:08.355Z,0.50
2019-03-15T21:27:37.215Z,0.45
2019-03-15T21:30:07.623Z,0.40
2019-03-15T21:32:36.560Z,0.50
2019-03-15T21:35:07.928Z,0.50
2019-03-15T21:37:36.847Z,0.40
2019-03-15T21:40:09.507Z,0.40
2019-03-15T21:42:38.447Z,0.40
2019-03-15T21:45:08.588Z,0.50
2019-03-15T21:47:37.448Z,0.50
2019-03-15T21:50:07.836Z,0.50
2019-03-15T21:52:36.936Z,0.55
2019-03-15T21:55:07.168Z,0.60
2019-03-15T21:57:37.674Z,0.50
2019-03-15T22:00:11.560Z,0.60
2019-03-15T22:02:42.887Z,0.57
2019-03-15T22:05:11.871Z,0.60
2019-03-15T22:07:46.808Z,0.60
2019-03-15T22:10:19.193Z,0.50
2019-03-15T22:13:03.362Z,0.60
2019-03-15T22:15:37.875Z,0.57
2019-03-15T22:18:13.125Z,0.60
2019-03-15T22:20:53.045Z,0.60
2019-03-15T22:23:21.957Z,0.68
2019-03-15T22:25:50.861Z,0.60
2019-03-15T22:28:19.899Z,0.60
2019-03-15T22:30:48.794Z,0.75
2019-03-15T22:33:17.833Z,0.70
2019-03-15T22:35:46.843Z,0.60
2019-03-15T22:38:25.724Z,0.70
2019-03-15T22:40:48.453Z,0.55
2019-03-15T22:43:17.301Z,0.72
2019-03-15T22:45:46.164Z,0.53
2019-03-15T22:48:15.023Z,0.40
2019-03-15T22:50:43.872Z,0.50
2019-03-15T22:53:12.723Z,0.90
2019-03-15T22:55:41.580Z,0.50
2019-03-15T22:58:10.451Z,2.30
2019-03-15T23:00:39.540Z,0.50
2019-03-15T23:03:08.563Z,0.57
2019-03-15T23:05:37.444Z,0.70
2019-03-15T23:08:06.359Z,0.57
2019-03-15T23:10:35.215Z,0.50
2019-03-15T23:13:04.312Z,0.50
2019-03-15T23:15:33.160Z,0.60
2019-03-15T23:18:02.028Z,0.60
2019-03-15T23:20:30.879Z,0.70
2019-03-15T23:22:59.744Z,0.53
2019-03-15T23:25:28.614Z,0.70
2019-03-15T23:27:57.600Z,0.62
2019-03-15T23:30:26.735Z,0.60
2019-03-15T23:32:55.596Z,1.42
2019-03-15T23:35:24.447Z,0.50
2019-03-15T23:37:53.316Z,0.50
2019-03-15T23:40:22.167Z,0.60
2019-03-15T23:42:51.020Z,0.50
2019-03-15T23:45:19.876Z,0.60
2019-03-15T23:47:48.735Z,0.50
2019-03-15T23:50:17.592Z,0.50
2019-03-15T23:52:46.442Z,0.53
2019-03-15T23:55:15.374Z,0.50
2019-03-15T23:57:44.510Z,0.50
